createdAt,value
2017-10-28T00:00:47.800Z,0
2017-10-28T00:01:56.340Z,0
2017-10-28T00:03:05.215Z,0
2017-10-28T00:04:13.752Z,0
2017-10-28T00:05:22.295Z,0
2017-10-28T00:06:30.833Z,0
2017-10-28T00:07:39.715Z,0
2017-10-28T00:08:48.924Z,0
2017-10-28T00:09:57.796Z,0
2017-10-28T00:11:06.346Z,0
2017-10-28T00:12:14.875Z,0
2017-10-28T00:13:23.752Z,0
2017-10-28T00:14:32.962Z,0
2017-10-28T00:15:41.840Z,0
2017-10-28T00:16:51.048Z,0
2017-10-28T00:17:59.591Z,0
2017-10-28T00:19:08.469Z,0
2017-10-28T00:20:17.008Z,0
2017-10-28T00:21:26.217Z,0
2017-10-28T00:22:34.756Z,0
2017-10-28T00:23:43.299Z,0
2017-10-28T00:24:51.841Z,0
2017-10-28T00:26:01.055Z,0
2017-10-28T00:27:10.263Z,0
2017-10-28T00:28:18.814Z,0
2017-10-28T00:29:28.026Z,0
2017-10-28T00:30:36.570Z,0
2017-10-28T00:31:46.117Z,0
2017-10-28T00:32:54.659Z,0
2017-10-28T00:34:03.533Z,0
2017-10-28T00:35:12.740Z,0
2017-10-28T00:36:21.280Z,0
2017-10-28T00:37:29.816Z,0
2017-10-28T00:38:39.365Z,0
2017-10-28T00:39:47.905Z,0
2017-10-28T00:40:57.115Z,0
2017-10-28T00:42:05.991Z,0
2017-10-28T00:43:15.202Z,0
2017-10-28T00:44:23.742Z,0
2017-10-28T00:45:32.625Z,0
2017-10-28T00:46:41.161Z,0
2017-10-28T00:47:50.039Z,0
2017-10-28T00:48:59.249Z,0
2017-10-28T00:50:08.130Z,0
2017-10-28T00:51:16.666Z,0
2017-10-28T00:52:25.875Z,0
2017-10-28T00:53:34.749Z,0
2017-10-28T00:54:43.624Z,0
2017-10-28T00:55:52.164Z,0
2017-10-28T00:57:00.703Z,0
2017-10-28T00:58:09.923Z,0
2017-10-28T00:59:19.136Z,0
2017-10-28T01:00:27.677Z,0
2017-10-28T01:01:36.891Z,0
2017-10-28T01:02:45.430Z,0
2017-10-28T01:03:54.304Z,0
2017-10-28T01:05:02.844Z,0
2017-10-28T01:06:11.386Z,0
2017-10-28T01:07:20.596Z,0
2017-10-28T01:08:29.474Z,0
2017-10-28T01:09:39.353Z,0
2017-10-28T01:10:48.564Z,0
2017-10-28T01:11:57.777Z,0
2017-10-28T01:13:06.654Z,0
2017-10-28T01:14:16.195Z,0
2017-10-28T01:15:24.736Z,0
2017-10-28T01:16:33.618Z,0
2017-10-28T01:17:42.156Z,0
2017-10-28T01:18:51.369Z,0
2017-10-28T01:19:59.908Z,0
2017-10-28T01:21:09.454Z,0
2017-10-28T01:22:17.996Z,0
2017-10-28T01:23:27.212Z,0
2017-10-28T01:24:36.081Z,0
2017-10-28T01:25:45.308Z,0
2017-10-28T01:26:54.536Z,0
2017-10-28T01:28:04.082Z,0
2017-10-28T01:29:12.966Z,0
2017-10-28T01:30:21.859Z,0
2017-10-28T01:31:30.380Z,0
2017-10-28T01:32:39.254Z,0
2017-10-28T01:33:47.797Z,0
2017-10-28T01:34:56.335Z,0
2017-10-28T01:36:05.549Z,0
2017-10-28T01:37:14.427Z,0
2017-10-28T01:38:23.301Z,0
2017-10-28T01:39:32.182Z,0
2017-10-28T01:40:41.050Z,0
2017-10-28T01:41:49.925Z,0
2017-10-28T01:42:58.463Z,0
2017-10-28T01:44:07.338Z,0
2017-10-28T01:45:16.550Z,0
2017-10-28T01:46:25.087Z,0
2017-10-28T01:47:33.624Z,0
2017-10-28T01:48:42.598Z,0
2017-10-28T01:49:51.472Z,0
2017-10-28T01:51:00.011Z,0
2017-10-28T01:52:08.553Z,0
2017-10-28T01:53:17.438Z,0
2017-10-28T01:54:26.999Z,0
2017-10-28T01:55:36.263Z,0
2017-10-28T01:56:44.803Z,0
2017-10-28T01:57:53.681Z,0
2017-10-28T01:59:02.554Z,0
2017-10-28T02:00:11.095Z,0
2017-10-28T02:01:19.973Z,0
2017-10-28T02:02:29.530Z,0
2017-10-28T02:03:38.076Z,0
2017-10-28T02:04:46.623Z,0
2017-10-28T02:05:55.527Z,0
2017-10-28T02:07:04.065Z,0
2017-10-28T02:08:12.600Z,0
2017-10-28T02:09:21.139Z,0
2017-10-28T02:10:30.013Z,0
2017-10-28T02:11:38.887Z,0
2017-10-28T02:12:47.425Z,0
2017-10-28T02:13:56.980Z,0
2017-10-28T02:15:05.853Z,0
2017-10-28T02:16:14.732Z,0
2017-10-28T02:17:23.604Z,0
2017-10-28T02:18:32.142Z,0
2017-10-28T02:19:40.680Z,0
2017-10-28T02:20:49.219Z,0
2017-10-28T02:21:58.428Z,0
2017-10-28T02:23:07.972Z,0
2017-10-28T02:24:16.512Z,0
2017-10-28T02:25:25.384Z,0
2017-10-28T02:26:34.593Z,0
2017-10-28T02:27:43.476Z,0
2017-10-28T02:28:52.021Z,0
2017-10-28T02:30:00.897Z,0
2017-10-28T02:31:09.439Z,0
2017-10-28T02:32:17.977Z,0
2017-10-28T02:33:26.515Z,0
2017-10-28T02:34:35.396Z,0
2017-10-28T02:35:44.975Z,0
2017-10-28T02:36:53.515Z,0
2017-10-28T02:38:02.729Z,0
2017-10-28T02:39:11.604Z,0
2017-10-28T02:40:20.478Z,0
2017-10-28T02:41:29.354Z,0
2017-10-28T02:42:38.224Z,0
2017-10-28T02:43:46.763Z,0
2017-10-28T02:44:55.973Z,0
2017-10-28T02:46:04.854Z,0
2017-10-28T02:47:13.735Z,0
2017-10-28T02:48:22.612Z,0
2017-10-28T02:49:31.492Z,0
2017-10-28T02:50:40.702Z,0
2017-10-28T02:51:49.239Z,0
2017-10-28T02:52:58.448Z,0
2017-10-28T02:54:06.988Z,0
2017-10-28T02:55:15.526Z,0
2017-10-28T02:56:24.734Z,0
2017-10-28T02:57:33.607Z,0
2017-10-28T02:58:42.819Z,0
2017-10-28T02:59:51.359Z,0
2017-10-28T03:01:00.232Z,0
2017-10-28T03:02:08.769Z,0
2017-10-28T03:03:17.306Z,0
2017-10-28T03:04:26.181Z,0
2017-10-28T03:05:35.426Z,0
2017-10-28T03:06:43.966Z,0
2017-10-28T03:07:52.503Z,0
2017-10-28T03:09:01.375Z,0
2017-10-28T03:10:09.917Z,0
2017-10-28T03:11:18.457Z,0
2017-10-28T03:12:27.667Z,0
2017-10-28T03:13:36.207Z,0
2017-10-28T03:14:44.746Z,0
2017-10-28T03:15:53.624Z,0
2017-10-28T03:17:02.832Z,0
2017-10-28T03:18:11.707Z,0
2017-10-28T03:19:20.248Z,0
2017-10-28T03:20:29.125Z,0
2017-10-28T03:21:37.662Z,0
2017-10-28T03:22:46.202Z,0
2017-10-28T03:23:54.741Z,0
2017-10-28T03:25:03.615Z,0
2017-10-28T03:26:12.494Z,0
2017-10-28T03:27:21.031Z,0
2017-10-28T03:28:29.569Z,0
2017-10-28T03:29:38.442Z,0
2017-10-28T03:30:46.981Z,0
2017-10-28T03:31:55.853Z,0
2017-10-28T03:33:04.393Z,0
2017-10-28T03:34:12.933Z,0
2017-10-28T03:35:22.531Z,0
2017-10-28T03:36:31.069Z,0
2017-10-28T03:37:39.609Z,0
2017-10-28T03:38:48.816Z,0
2017-10-28T03:39:57.691Z,0
2017-10-28T03:41:06.571Z,0
2017-10-28T03:42:15.445Z,0
2017-10-28T03:43:23.985Z,0
2017-10-28T03:44:33.195Z,0
2017-10-28T03:45:42.405Z,0
2017-10-28T03:46:51.278Z,0
2017-10-28T03:48:01.391Z,0
2017-10-28T03:49:10.269Z,0
2017-10-28T03:50:18.804Z,0
2017-10-28T03:51:27.676Z,0
2017-10-28T03:52:36.552Z,0
2017-10-28T03:53:45.091Z,0
2017-10-28T03:54:54.302Z,0
2017-10-28T03:56:03.177Z,0
2017-10-28T03:57:11.714Z,0
2017-10-28T03:58:20.921Z,0
2017-10-28T03:59:30.131Z,0
2017-10-28T04:00:39.348Z,0
2017-10-28T04:01:47.885Z,0
2017-10-28T04:02:56.427Z,0
2017-10-28T04:04:04.960Z,0
2017-10-28T04:05:13.497Z,0
2017-10-28T04:06:22.035Z,0
2017-10-28T04:07:31.244Z,0
2017-10-28T04:08:39.780Z,0
2017-10-28T04:09:48.317Z,0
2017-10-28T04:10:56.854Z,0
2017-10-28T04:12:06.416Z,0
2017-10-28T04:13:15.290Z,0
2017-10-28T04:14:24.161Z,0
2017-10-28T04:15:33.037Z,0
2017-10-28T04:16:41.913Z,0
2017-10-28T04:17:50.789Z,0
2017-10-28T04:18:59.327Z,0
2017-10-28T04:20:07.864Z,0
2017-10-28T04:21:16.404Z,0
2017-10-28T04:22:24.944Z,0
2017-10-28T04:23:34.166Z,0
2017-10-28T04:24:42.700Z,0
2017-10-28T04:25:51.238Z,0
2017-10-28T04:26:59.776Z,0
2017-10-28T04:28:08.312Z,0
2017-10-28T04:29:17.188Z,0
2017-10-28T04:30:26.401Z,0
2017-10-28T04:31:35.609Z,0
2017-10-28T04:32:44.142Z,0
2017-10-28T04:33:52.678Z,0
2017-10-28T04:35:01.552Z,0
2017-10-28T04:36:10.761Z,0
2017-10-28T04:37:19.975Z,0
2017-10-28T04:38:28.515Z,0
2017-10-28T04:39:37.388Z,0
2017-10-28T04:40:46.599Z,0
2017-10-28T04:41:55.861Z,0
2017-10-28T04:43:04.398Z,0
2017-10-28T04:44:13.272Z,0
2017-10-28T04:45:21.807Z,0
2017-10-28T04:46:30.347Z,0
2017-10-28T04:47:39.222Z,0
2017-10-28T04:48:48.122Z,0
2017-10-28T04:49:56.995Z,0
2017-10-28T04:51:06.203Z,0
2017-10-28T04:52:14.744Z,0
2017-10-28T04:53:23.956Z,0
2017-10-28T04:54:32.833Z,0
2017-10-28T04:55:41.714Z,0
2017-10-28T04:56:50.589Z,0
2017-10-28T04:57:59.469Z,0
2017-10-28T04:59:07.998Z,0
2017-10-28T05:00:16.874Z,0
2017-10-28T05:01:26.088Z,0
2017-10-28T05:02:34.625Z,0
2017-10-28T05:03:43.167Z,0
2017-10-28T05:04:51.703Z,0
2017-10-28T05:06:00.240Z,0
2017-10-28T05:07:09.117Z,0
2017-10-28T05:08:17.996Z,0
2017-10-28T05:09:26.875Z,0
2017-10-28T05:10:35.410Z,0
2017-10-28T05:11:44.622Z,0
2017-10-28T05:12:53.164Z,0
2017-10-28T05:14:02.051Z,0
2017-10-28T05:15:10.586Z,0
2017-10-28T05:16:19.462Z,0
2017-10-28T05:17:28.335Z,0
2017-10-28T05:18:37.206Z,0
2017-10-28T05:19:45.746Z,0
2017-10-28T05:20:54.952Z,0
2017-10-28T05:22:03.492Z,0
2017-10-28T05:23:13.040Z,0
2017-10-28T05:24:22.253Z,0
2017-10-28T05:25:31.126Z,0
2017-10-28T05:26:39.666Z,0
2017-10-28T05:27:48.877Z,0
2017-10-28T05:28:57.750Z,0
2017-10-28T05:30:06.291Z,0
2017-10-28T05:31:15.834Z,0
2017-10-28T05:32:24.373Z,0
2017-10-28T05:33:33.382Z,0
2017-10-28T05:34:42.067Z,0
2017-10-28T05:35:51.039Z,0
2017-10-28T05:37:00.284Z,0
2017-10-28T05:38:08.851Z,0
2017-10-28T05:39:17.444Z,0
2017-10-28T05:40:26.355Z,0
2017-10-28T05:41:36.308Z,0
2017-10-28T05:42:45.184Z,0
2017-10-28T05:43:54.059Z,0
2017-10-28T05:45:02.599Z,0
2017-10-28T05:46:11.144Z,0
2017-10-28T05:47:20.357Z,0
2017-10-28T05:48:29.231Z,0
2017-10-28T05:49:37.775Z,0
2017-10-28T05:50:46.654Z,0
2017-10-28T05:51:55.536Z,0
2017-10-28T05:53:04.777Z,0
2017-10-28T05:54:13.318Z,0
2017-10-28T05:55:22.531Z,0
2017-10-28T05:56:31.410Z,0
2017-10-28T05:57:40.286Z,0
2017-10-28T05:58:49.566Z,0
2017-10-28T05:59:58.105Z,0
2017-10-28T06:01:07.352Z,0
2017-10-28T06:02:16.226Z,0
2017-10-28T06:03:24.766Z,0
2017-10-28T06:04:33.303Z,0
2017-10-28T06:05:42.174Z,0
2017-10-28T06:06:51.052Z,0
2017-10-28T06:07:59.925Z,0
2017-10-28T06:09:09.138Z,0
2017-10-28T06:10:17.677Z,0
2017-10-28T06:11:26.215Z,0
2017-10-28T06:12:34.753Z,0
2017-10-28T06:13:43.294Z,0
2017-10-28T06:14:52.172Z,0
2017-10-28T06:16:01.389Z,0
2017-10-28T06:17:10.258Z,0
2017-10-28T06:18:19.140Z,0
2017-10-28T06:19:28.013Z,0
2017-10-28T06:20:36.554Z,0
2017-10-28T06:21:45.766Z,0
2017-10-28T06:22:55.317Z,0
2017-10-28T06:24:04.191Z,0
2017-10-28T06:25:12.728Z,0
2017-10-28T06:26:21.601Z,0
2017-10-28T06:27:30.471Z,0
2017-10-28T06:28:39.009Z,5
2017-10-28T06:29:47.551Z,0
2017-10-28T06:30:57.105Z,5
2017-10-28T06:32:05.980Z,5
2017-10-28T06:33:15.191Z,5
2017-10-28T06:34:23.730Z,5
2017-10-28T06:35:32.934Z,5
2017-10-28T06:36:41.471Z,5
2017-10-28T06:37:50.012Z,10
2017-10-28T06:38:58.550Z,10
2017-10-28T06:40:07.424Z,10
2017-10-28T06:41:16.322Z,10
2017-10-28T06:42:24.862Z,15
2017-10-28T06:43:33.400Z,15
2017-10-28T06:44:41.940Z,15
2017-10-28T06:45:50.475Z,15
2017-10-28T06:46:59.013Z,15
2017-10-28T06:48:07.597Z,15
2017-10-28T06:49:16.473Z,20
2017-10-28T06:50:25.012Z,20
2017-10-28T06:51:34.228Z,25
2017-10-28T06:52:43.504Z,25
2017-10-28T06:53:52.378Z,30
2017-10-28T06:55:01.252Z,25
2017-10-28T06:56:09.790Z,25
2017-10-28T06:57:18.669Z,25
2017-10-28T06:58:27.547Z,25
2017-10-28T06:59:36.766Z,25
2017-10-28T07:00:45.302Z,30
2017-10-28T07:01:54.177Z,25
2017-10-28T07:03:02.717Z,25
2017-10-28T07:04:11.592Z,25
2017-10-28T07:05:20.465Z,25
2017-10-28T07:06:29.352Z,25
2017-10-28T07:07:37.890Z,20
2017-10-28T07:08:46.428Z,25
2017-10-28T07:09:55.639Z,20
2017-10-28T07:11:04.513Z,20
2017-10-28T07:12:14.061Z,20
2017-10-28T07:13:22.602Z,20
2017-10-28T07:14:31.139Z,20
2017-10-28T07:15:39.680Z,20
2017-10-28T07:16:49.224Z,20
2017-10-28T07:17:58.096Z,25
2017-10-28T07:19:07.309Z,30
2017-10-28T07:20:16.189Z,30
2017-10-28T07:21:25.075Z,30
2017-10-28T07:22:33.961Z,35
2017-10-28T07:23:42.509Z,40
2017-10-28T07:24:51.392Z,50
2017-10-28T07:26:00.283Z,60
2017-10-28T07:27:09.171Z,65
2017-10-28T07:28:17.721Z,65
2017-10-28T07:29:26.257Z,65
2017-10-28T07:30:34.797Z,65
2017-10-28T07:31:43.340Z,60
2017-10-28T07:32:52.221Z,60
2017-10-28T07:34:01.434Z,55
2017-10-28T07:35:10.335Z,60
2017-10-28T07:36:19.544Z,70
2017-10-28T07:37:28.421Z,75
2017-10-28T07:38:36.955Z,90
2017-10-28T07:39:46.171Z,95
2017-10-28T07:40:55.042Z,100
2017-10-28T07:42:03.920Z,95
2017-10-28T07:43:13.139Z,95
2017-10-28T07:44:22.015Z,100
2017-10-28T07:45:31.222Z,95
2017-10-28T07:46:40.445Z,75
2017-10-28T07:47:48.987Z,75
2017-10-28T07:48:57.858Z,75
2017-10-28T07:50:07.074Z,45
2017-10-28T07:51:16.280Z,35
2017-10-28T07:52:25.832Z,35
2017-10-28T07:53:34.709Z,35
2017-10-28T07:54:43.923Z,45
2017-10-28T07:55:52.564Z,50
2017-10-28T07:57:01.774Z,55
2017-10-28T07:58:10.647Z,50
2017-10-28T07:59:19.854Z,50
2017-10-28T08:00:28.733Z,45
2017-10-28T08:01:37.275Z,55
2017-10-28T08:02:46.155Z,45
2017-10-28T08:03:55.028Z,50
2017-10-28T08:05:03.904Z,60
2017-10-28T08:06:12.780Z,65
2017-10-28T08:07:21.656Z,70
2017-10-28T08:08:30.534Z,80
2017-10-28T08:09:39.741Z,75
2017-10-28T08:10:48.955Z,70
2017-10-28T08:11:58.166Z,80
2017-10-28T08:13:07.386Z,70
2017-10-28T08:14:16.265Z,65
2017-10-28T08:15:25.815Z,70
2017-10-28T08:16:35.027Z,65
2017-10-28T08:17:43.900Z,60
2017-10-28T08:18:52.439Z,60
2017-10-28T08:20:01.313Z,90
2017-10-28T08:21:10.188Z,95
2017-10-28T08:22:18.726Z,90
2017-10-28T08:23:27.268Z,95
2017-10-28T08:24:36.484Z,90
2017-10-28T08:25:45.696Z,95
2017-10-28T08:26:54.237Z,95
2017-10-28T08:28:03.112Z,95
2017-10-28T08:29:11.990Z,90
2017-10-28T08:30:20.866Z,80
2017-10-28T08:31:29.747Z,85
2017-10-28T08:32:38.621Z,85
2017-10-28T08:33:47.832Z,100
2017-10-28T08:34:56.370Z,85
2017-10-28T08:36:05.245Z,95
2017-10-28T08:37:14.123Z,100
2017-10-28T08:38:23.001Z,125
2017-10-28T08:39:31.917Z,115
2017-10-28T08:40:40.771Z,120
2017-10-28T08:41:49.655Z,120
2017-10-28T08:42:58.866Z,120
2017-10-28T08:44:08.080Z,130
2017-10-28T08:45:16.616Z,135
2017-10-28T08:46:25.489Z,120
2017-10-28T08:47:34.364Z,125
2017-10-28T08:48:42.903Z,135
2017-10-28T08:49:51.441Z,135
2017-10-28T08:51:00.315Z,120
2017-10-28T08:52:09.192Z,120
2017-10-28T08:53:17.734Z,125
2017-10-28T08:54:26.611Z,145
2017-10-28T08:55:35.153Z,135
2017-10-28T08:56:44.368Z,130
2017-10-28T08:57:53.580Z,130
2017-10-28T08:59:02.121Z,145
2017-10-28T09:00:11.002Z,160
2017-10-28T09:01:19.544Z,120
2017-10-28T09:02:28.433Z,125
2017-10-28T09:03:37.693Z,135
2017-10-28T09:04:46.572Z,145
2017-10-28T09:05:55.110Z,125
2017-10-28T09:07:04.665Z,105
2017-10-28T09:08:13.543Z,100
2017-10-28T09:09:22.427Z,100
2017-10-28T09:10:31.646Z,85
2017-10-28T09:11:41.192Z,110
2017-10-28T09:12:50.095Z,115
2017-10-28T09:13:58.635Z,85
2017-10-28T09:15:07.300Z,85
2017-10-28T09:16:16.176Z,110
2017-10-28T09:17:25.396Z,130
2017-10-28T09:18:34.605Z,100
2017-10-28T09:19:43.500Z,115
2017-10-28T09:20:52.039Z,135
2017-10-28T09:22:01.256Z,100
2017-10-28T09:23:10.134Z,140
2017-10-28T09:24:19.680Z,140
2017-10-28T09:25:28.556Z,110
2017-10-28T09:26:37.095Z,135
2017-10-28T09:27:45.635Z,135
2017-10-28T09:28:54.515Z,120
2017-10-28T09:30:04.088Z,105
2017-10-28T09:31:13.312Z,140
2017-10-28T09:32:22.191Z,145
2017-10-28T09:33:30.741Z,165
2017-10-28T09:34:39.623Z,160
2017-10-28T09:35:48.833Z,150
2017-10-28T09:36:57.709Z,150
2017-10-28T09:38:06.919Z,140
2017-10-28T09:39:15.873Z,120
2017-10-28T09:40:25.094Z,110
2017-10-28T09:41:33.973Z,125
2017-10-28T09:42:42.517Z,140
2017-10-28T09:43:51.390Z,135
2017-10-28T09:45:00.264Z,120
2017-10-28T09:46:09.142Z,115
2017-10-28T09:47:18.024Z,115
2017-10-28T09:48:27.238Z,130
2017-10-28T09:49:35.777Z,105
2017-10-28T09:50:44.651Z,105
2017-10-28T09:51:53.527Z,140
2017-10-28T09:53:02.736Z,115
2017-10-28T09:54:11.276Z,110
2017-10-28T09:55:20.153Z,110
2017-10-28T09:56:28.696Z,105
2017-10-28T09:57:37.582Z,110
2017-10-28T09:58:46.459Z,95
2017-10-28T09:59:55.335Z,85
2017-10-28T10:01:04.210Z,75
2017-10-28T10:02:12.752Z,70
2017-10-28T10:03:21.636Z,75
2017-10-28T10:04:30.175Z,85
2017-10-28T10:05:38.717Z,80
2017-10-28T10:06:47.256Z,100
2017-10-28T10:07:56.128Z,100
2017-10-28T10:09:05.013Z,75
2017-10-28T10:10:13.553Z,85
2017-10-28T10:11:22.095Z,120
2017-10-28T10:12:31.311Z,115
2017-10-28T10:13:39.851Z,110
2017-10-28T10:14:48.740Z,110
2017-10-28T10:15:57.622Z,140
2017-10-28T10:17:06.163Z,145
2017-10-28T10:18:15.374Z,155
2017-10-28T10:19:23.913Z,135
2017-10-28T10:20:32.787Z,155
2017-10-28T10:21:42.002Z,125
2017-10-28T10:22:50.540Z,115
2017-10-28T10:23:59.419Z,125
2017-10-28T10:25:07.961Z,120
2017-10-28T10:26:16.501Z,140
2017-10-28T10:27:25.042Z,125
2017-10-28T10:28:33.583Z,135
2017-10-28T10:29:42.460Z,150
2017-10-28T10:30:51.345Z,175
2017-10-28T10:32:00.231Z,190
2017-10-28T10:33:09.104Z,185
2017-10-28T10:34:17.980Z,165
2017-10-28T10:35:26.523Z,150
2017-10-28T10:36:35.400Z,110
2017-10-28T10:37:44.618Z,135
2017-10-28T10:38:53.161Z,110
2017-10-28T10:40:02.040Z,95
2017-10-28T10:41:10.917Z,135
2017-10-28T10:42:19.796Z,155
2017-10-28T10:43:29.010Z,150
2017-10-28T10:44:38.225Z,155
2017-10-28T10:45:47.102Z,160
2017-10-28T10:46:56.661Z,145
2017-10-28T10:48:05.876Z,135
2017-10-28T10:49:14.754Z,130
2017-10-28T10:50:23.966Z,140
2017-10-28T10:51:33.185Z,115
2017-10-28T10:52:42.068Z,135
2017-10-28T10:53:51.285Z,125
2017-10-28T10:55:00.504Z,90
2017-10-28T10:56:09.380Z,110
2017-10-28T10:57:18.594Z,135
2017-10-28T10:58:27.807Z,140
2017-10-28T10:59:37.363Z,120
2017-10-28T11:00:45.909Z,120
2017-10-28T11:01:55.127Z,110
2017-10-28T11:03:04.006Z,100
2017-10-28T11:04:12.930Z,105
2017-10-28T11:05:22.141Z,115
2017-10-28T11:06:31.025Z,110
2017-10-28T11:07:39.906Z,80
2017-10-28T11:08:49.116Z,95
2017-10-28T11:09:57.656Z,90
2017-10-28T11:11:06.197Z,130
2017-10-28T11:12:15.074Z,135
2017-10-28T11:13:23.964Z,140
2017-10-28T11:14:32.840Z,150
2017-10-28T11:15:41.381Z,140
2017-10-28T11:16:50.257Z,155
2017-10-28T11:17:58.795Z,150
2017-10-28T11:19:07.337Z,155
2017-10-28T11:20:16.215Z,140
2017-10-28T11:21:25.101Z,150
2017-10-28T11:22:33.641Z,150
2017-10-28T11:23:42.512Z,155
2017-10-28T11:24:51.396Z,150
2017-10-28T11:26:01.438Z,160
2017-10-28T11:27:09.984Z,135
2017-10-28T11:28:18.522Z,145
2017-10-28T11:29:27.398Z,150
2017-10-28T11:30:36.271Z,160
2017-10-28T11:31:44.843Z,160
2017-10-28T11:32:53.728Z,125
2017-10-28T11:34:03.275Z,105
2017-10-28T11:35:12.151Z,105
2017-10-28T11:36:21.097Z,130
2017-10-28T11:37:30.316Z,135
2017-10-28T11:38:39.190Z,115
2017-10-28T11:39:48.402Z,100
2017-10-28T11:40:57.617Z,95
2017-10-28T11:42:06.506Z,100
2017-10-28T11:43:16.055Z,95
2017-10-28T11:44:24.964Z,115
2017-10-28T11:45:34.186Z,85
2017-10-28T11:46:43.061Z,85
2017-10-28T11:47:51.939Z,90
2017-10-28T11:49:00.814Z,110
2017-10-28T11:50:09.696Z,110
2017-10-28T11:51:18.586Z,110
2017-10-28T11:52:27.798Z,120
2017-10-28T11:53:36.682Z,105
2017-10-28T11:54:45.222Z,125
2017-10-28T11:55:54.769Z,110
2017-10-28T11:57:03.307Z,145
2017-10-28T11:58:12.185Z,150
2017-10-28T11:59:21.398Z,130
2017-10-28T12:00:30.278Z,120
2017-10-28T12:01:39.488Z,105
2017-10-28T12:02:48.027Z,130
2017-10-28T12:03:56.576Z,140
2017-10-28T12:05:05.449Z,160
2017-10-28T12:06:14.326Z,175
2017-10-28T12:07:23.550Z,175
2017-10-28T12:08:32.426Z,150
2017-10-28T12:09:41.304Z,170
2017-10-28T12:10:49.846Z,185
2017-10-28T12:11:59.723Z,205
2017-10-28T12:13:08.265Z,190
2017-10-28T12:14:17.142Z,195
2017-10-28T12:15:26.360Z,165
2017-10-28T12:16:35.239Z,140
2017-10-28T12:17:43.781Z,165
2017-10-28T12:18:52.322Z,170
2017-10-28T12:20:01.534Z,195
2017-10-28T12:21:10.414Z,150
2017-10-28T12:22:18.953Z,120
2017-10-28T12:23:27.931Z,90
2017-10-28T12:24:36.471Z,110
2017-10-28T12:25:45.351Z,160
2017-10-28T12:26:54.236Z,175
2017-10-28T12:28:02.779Z,160
2017-10-28T12:29:11.320Z,150
2017-10-28T12:30:20.874Z,135
2017-10-28T12:31:29.750Z,165
2017-10-28T12:32:38.293Z,180
2017-10-28T12:33:47.505Z,165
2017-10-28T12:34:56.386Z,140
2017-10-28T12:36:05.600Z,155
2017-10-28T12:37:15.147Z,150
2017-10-28T12:38:23.690Z,170
2017-10-28T12:39:32.227Z,160
2017-10-28T12:40:40.770Z,150
2017-10-28T12:41:49.314Z,160
2017-10-28T12:42:58.191Z,180
2017-10-28T12:44:06.729Z,165
2017-10-28T12:45:15.638Z,165
2017-10-28T12:46:24.173Z,190
2017-10-28T12:47:33.149Z,190
2017-10-28T12:48:42.211Z,145
2017-10-28T12:49:50.753Z,165
2017-10-28T12:51:00.016Z,170
2017-10-28T12:52:08.610Z,185
2017-10-28T12:53:17.907Z,180
2017-10-28T12:54:26.826Z,150
2017-10-28T12:55:35.709Z,130
2017-10-28T12:56:44.670Z,140
2017-10-28T12:57:53.555Z,125
2017-10-28T12:59:02.787Z,145
2017-10-28T13:00:11.333Z,130
2017-10-28T13:01:19.882Z,145
2017-10-28T13:02:29.098Z,125
2017-10-28T13:03:38.333Z,140
2017-10-28T13:04:47.220Z,160
2017-10-28T13:05:56.098Z,110
2017-10-28T13:07:04.639Z,105
2017-10-28T13:08:13.868Z,120
2017-10-28T13:09:22.407Z,115
2017-10-28T13:10:31.289Z,95
2017-10-28T13:11:40.509Z,130
2017-10-28T13:12:49.384Z,135
2017-10-28T13:13:57.924Z,125
2017-10-28T13:15:06.803Z,105
2017-10-28T13:16:15.345Z,140
2017-10-28T13:17:24.221Z,140
2017-10-28T13:18:32.760Z,135
2017-10-28T13:19:41.637Z,120
2017-10-28T13:20:50.515Z,115
2017-10-28T13:21:59.058Z,140
2017-10-28T13:23:08.271Z,100
2017-10-28T13:24:17.146Z,95
2017-10-28T13:25:25.684Z,95
2017-10-28T13:26:34.224Z,125
2017-10-28T13:27:43.441Z,105
2017-10-28T13:28:52.317Z,130
2017-10-28T13:30:01.195Z,115
2017-10-28T13:31:10.080Z,100
2017-10-28T13:32:19.009Z,115
2017-10-28T13:33:27.553Z,140
2017-10-28T13:34:36.768Z,115
2017-10-28T13:35:45.307Z,135
2017-10-28T13:36:53.849Z,140
2017-10-28T13:38:02.390Z,140
2017-10-28T13:39:10.931Z,165
2017-10-28T13:40:20.144Z,165
2017-10-28T13:41:29.025Z,155
2017-10-28T13:42:38.580Z,155
2017-10-28T13:43:47.458Z,155
2017-10-28T13:44:56.677Z,150
2017-10-28T13:46:05.558Z,140
2017-10-28T13:47:14.436Z,135
2017-10-28T13:48:23.647Z,135
2017-10-28T13:49:32.530Z,130
2017-10-28T13:50:41.408Z,115
2017-10-28T13:51:50.283Z,100
2017-10-28T13:52:59.226Z,90
2017-10-28T13:54:08.104Z,95
2017-10-28T13:55:16.653Z,85
2017-10-28T13:56:25.524Z,95
2017-10-28T13:57:34.737Z,85
2017-10-28T13:58:43.614Z,95
2017-10-28T13:59:52.492Z,100
2017-10-28T14:01:01.035Z,100
2017-10-28T14:02:09.578Z,80
2017-10-28T14:03:18.128Z,80
2017-10-28T14:04:26.661Z,80
2017-10-28T14:05:35.200Z,70
2017-10-28T14:06:43.744Z,75
2017-10-28T14:07:52.386Z,70
2017-10-28T14:09:01.270Z,65
2017-10-28T14:10:10.481Z,60
2017-10-28T14:11:19.020Z,55
2017-10-28T14:12:27.897Z,55
2017-10-28T14:13:37.114Z,45
2017-10-28T14:14:46.665Z,40
2017-10-28T14:15:55.539Z,45
2017-10-28T14:17:04.437Z,40
2017-10-28T14:18:12.978Z,40
2017-10-28T14:19:22.198Z,35
2017-10-28T14:20:31.076Z,30
2017-10-28T14:21:39.617Z,35
2017-10-28T14:22:48.157Z,35
2017-10-28T14:23:57.381Z,35
2017-10-28T14:25:05.925Z,35
2017-10-28T14:26:14.463Z,35
2017-10-28T14:27:23.007Z,40
2017-10-28T14:28:31.883Z,40
2017-10-28T14:29:40.425Z,45
2017-10-28T14:30:48.984Z,40
2017-10-28T14:31:57.868Z,40
2017-10-28T14:33:06.408Z,45
2017-10-28T14:34:15.288Z,40
2017-10-28T14:35:23.829Z,40
2017-10-28T14:36:32.703Z,40
2017-10-28T14:37:41.243Z,35
2017-10-28T14:38:50.114Z,30
2017-10-28T14:39:58.994Z,30
2017-10-28T14:41:08.214Z,25
2017-10-28T14:42:17.090Z,30
2017-10-28T14:43:25.965Z,25
2017-10-28T14:44:34.843Z,20
2017-10-28T14:45:43.719Z,20
2017-10-28T14:46:52.595Z,20
2017-10-28T14:48:01.136Z,20
2017-10-28T14:49:10.015Z,20
2017-10-28T14:50:18.889Z,20
2017-10-28T14:51:28.098Z,20
2017-10-28T14:52:36.971Z,20
2017-10-28T14:53:45.853Z,20
2017-10-28T14:54:54.731Z,20
2017-10-28T14:56:03.726Z,15
2017-10-28T14:57:13.272Z,15
2017-10-28T14:58:21.810Z,15
2017-10-28T14:59:30.400Z,15
2017-10-28T15:00:39.618Z,20
2017-10-28T15:01:48.160Z,20
2017-10-28T15:02:56.698Z,20
2017-10-28T15:04:05.248Z,15
2017-10-28T15:05:14.113Z,20
2017-10-28T15:06:22.990Z,20
2017-10-28T15:07:31.530Z,20
2017-10-28T15:08:40.487Z,20
2017-10-28T15:09:49.698Z,15
2017-10-28T15:10:58.917Z,25
2017-10-28T15:12:07.794Z,20
2017-10-28T15:13:16.670Z,20
2017-10-28T15:14:25.211Z,20
2017-10-28T15:15:33.753Z,20
2017-10-28T15:16:42.292Z,20
2017-10-28T15:17:50.835Z,15
2017-10-28T15:19:00.049Z,15
2017-10-28T15:20:08.956Z,15
2017-10-28T15:21:18.565Z,15
2017-10-28T15:22:27.105Z,15
2017-10-28T15:23:35.814Z,10
2017-10-28T15:24:44.688Z,10
2017-10-28T15:25:53.635Z,10
2017-10-28T15:27:03.236Z,10
2017-10-28T15:28:11.777Z,10
2017-10-28T15:29:20.650Z,10
2017-10-28T15:30:29.185Z,5
2017-10-28T15:31:38.399Z,5
2017-10-28T15:32:47.273Z,5
2017-10-28T15:33:56.531Z,5
2017-10-28T15:35:05.745Z,5
2017-10-28T15:36:14.623Z,5
2017-10-28T15:37:23.847Z,5
2017-10-28T15:38:32.732Z,5
2017-10-28T15:39:41.626Z,5
2017-10-28T15:40:50.479Z,5
2017-10-28T15:41:59.017Z,5
2017-10-28T15:43:07.900Z,5
2017-10-28T15:44:16.808Z,5
2017-10-28T15:45:25.344Z,5
2017-10-28T15:46:34.559Z,5
2017-10-28T15:47:44.106Z,5
2017-10-28T15:48:52.645Z,5
2017-10-28T15:50:01.184Z,0
2017-10-28T15:51:10.060Z,5
2017-10-28T15:52:19.273Z,0
2017-10-28T15:53:28.153Z,0
2017-10-28T15:54:37.029Z,5
2017-10-28T15:55:45.905Z,0
2017-10-28T15:56:55.313Z,0
2017-10-28T15:58:04.526Z,0
2017-10-28T15:59:13.737Z,0
2017-10-28T16:00:22.614Z,0
2017-10-28T16:01:31.153Z,0
2017-10-28T16:02:40.029Z,0
2017-10-28T16:03:48.919Z,0
2017-10-28T16:04:57.440Z,0
2017-10-28T16:06:06.533Z,0
2017-10-28T16:07:15.512Z,0
2017-10-28T16:08:24.725Z,0
2017-10-28T16:09:33.272Z,0
2017-10-28T16:10:41.811Z,0
2017-10-28T16:11:51.032Z,0
2017-10-28T16:13:00.067Z,0
2017-10-28T16:14:09.028Z,0
2017-10-28T16:15:17.906Z,0
2017-10-28T16:16:26.467Z,0
2017-10-28T16:17:35.392Z,0
2017-10-28T16:18:43.932Z,0
2017-10-28T16:19:52.474Z,0
2017-10-28T16:21:01.682Z,0
2017-10-28T16:22:10.231Z,0
2017-10-28T16:23:19.750Z,0
2017-10-28T16:24:28.290Z,0
2017-10-28T16:25:37.168Z,0
2017-10-28T16:26:46.544Z,0
2017-10-28T16:27:55.436Z,0